Time;durP1;ratioP1;P1;durP2;ratioP2;P2;SDS_P1;SDS_P2;PMS_P1;PMS_P2;Temp;Humidity;BMP_temperature;BMP_pressure;BME280_temperature;BME280_humidity;BME280_pressure;Samples;Min_cycle;Max_cycle;Signal;HPM_P1;HPM_P2
2022/09/23 00:02:15;;;;;;;16.33;10.43;;;10.00;99.90;;;;;;5043942;28;20277;-63
2022/09/23 00:04:45;;;;;;;13.63;10.77;;;9.90;99.90;;;;;;5062770;28;20855;-63
2022/09/23 00:07:13;;;;;;;14.27;10.40;;;9.90;99.90;;;;;;5074969;28;20661;-63
2022/09/23 00:09:43;;;;;;;14.13;10.00;;;9.90;99.90;;;;;;5071339;28;20226;-63
2022/09/23 00:12:11;;;;;;;18.13;11.40;;;9.90;99.90;;;;;;5071271;28;20196;-63
2022/09/23 00:14:40;;;;;;;12.97;10.70;;;9.90;99.90;;;;;;5071918;28;20207;-64
2022/09/23 00:17:08;;;;;;;12.23;10.17;;;9.90;99.90;;;;;;5068941;28;20870;-63
2022/09/23 00:19:39;;;;;;;13.97;10.97;;;9.90;99.90;;;;;;5061848;28;20901;-63
2022/09/23 00:22:07;;;;;;;15.17;10.80;;;9.90;99.90;;;;;;5070531;28;20211;-63
2022/09/23 00:24:35;;;;;;;14.20;10.10;;;9.90;99.90;;;;;;5063720;28;20203;-63
2022/09/23 00:27:05;;;;;;;13.20;10.83;;;9.90;99.90;;;;;;5096436;28;20192;-63
2022/09/23 00:29:35;;;;;;;15.47;10.30;;;9.80;99.90;;;;;;5090165;28;20209;-63
2022/09/23 00:32:04;;;;;;;17.33;10.47;;;9.80;99.90;;;;;;5068359;28;20204;-64
2022/09/23 00:34:33;;;;;;;16.00;10.57;;;9.80;99.90;;;;;;5081457;28;20188;-64
2022/09/23 00:37:01;;;;;;;12.23;10.70;;;9.80;99.90;;;;;;5064673;28;20212;-64
2022/09/23 00:39:30;;;;;;;13.63;10.37;;;9.80;99.90;;;;;;5062832;28;20295;-63
2022/09/23 00:41:58;;;;;;;13.17;9.73;;;9.80;99.90;;;;;;5061135;28;20200;-64
2022/09/23 00:44:43;;;;;;;13.00;9.87;;;9.80;99.90;;;;;;5061687;28;20215;-63
2022/09/23 00:47:16;;;;;;;18.40;10.73;;;9.80;99.90;;;;;;5063224;28;20191;-64
2022/09/23 00:49:46;;;;;;;13.83;10.63;;;9.80;99.90;;;;;;5065640;28;20220;-63
2022/09/23 00:52:18;;;;;;;12.13;9.77;;;9.70;99.90;;;;;;5066784;28;20200;-64
2022/09/23 00:54:47;;;;;;;13.30;10.07;;;9.70;99.90;;;;;;5057680;28;20665;-63
2022/09/23 00:57:17;;;;;;;13.23;9.77;;;9.70;99.90;;;;;;5060071;28;20235;-63
2022/09/23 00:59:50;;;;;;;15.30;10.47;;;9.70;99.90;;;;;;5063218;28;20237;-63
2022/09/23 01:02:20;;;;;;;16.27;11.07;;;9.60;99.90;;;;;;5064445;28;20203;-63
2022/09/23 01:04:50;;;;;;;14.20;10.23;;;9.60;99.90;;;;;;5063609;28;20196;-63
2022/09/23 01:07:18;;;;;;;12.40;9.90;;;9.60;99.90;;;;;;5065572;28;20266;-63
2022/09/23 01:09:48;;;;;;;12.53;10.50;;;9.60;99.90;;;;;;5064000;28;20200;-64
2022/09/23 01:12:31;;;;;;;18.87;11.03;;;9.60;99.90;;;;;;5064125;28;20192;-63
2022/09/23 01:15:10;;;;;;;11.97;9.83;;;9.60;99.90;;;;;;5060543;28;20192;-63
2022/09/23 01:17:47;;;;;;;14.67;10.17;;;9.60;99.90;;;;;;5064049;28;20221;-64
2022/09/23 01:20:45;;;;;;;14.73;10.70;;;9.60;99.90;;;;;;5056467;28;20542;-63
2022/09/23 01:23:32;;;;;;;12.90;10.17;;;9.60;99.90;;;;;;5060573;28;20299;-63
2022/09/23 01:26:29;;;;;;;14.23;10.40;;;9.50;99.90;;;;;;5056972;28;20200;-64
2022/09/23 01:29:24;;;;;;;18.10;10.83;;;9.50;99.90;;;;;;5059608;28;20275;-64
2022/09/23 01:32:01;;;;;;;16.40;10.57;;;9.40;99.90;;;;;;5067133;28;20836;-63
2022/09/23 01:34:36;;;;;;;13.13;10.07;;;9.40;99.90;;;;;;5066255;28;20234;-63
2022/09/23 01:37:11;;;;;;;14.17;10.77;;;9.40;99.90;;;;;;5054943;28;20602;-64
2022/09/23 01:39:46;;;;;;;13.33;10.57;;;9.30;99.90;;;;;;5064618;28;20195;-63
2022/09/23 01:42:23;;;;;;;13.07;10.23;;;9.30;99.90;;;;;;5060625;28;20195;-63
2022/09/23 01:44:57;;;;;;;14.27;10.87;;;9.30;99.90;;;;;;5061201;28;20204;-64
2022/09/23 01:47:32;;;;;;;16.50;10.47;;;9.20;99.90;;;;;;5064731;28;20195;-63
2022/09/23 01:50:54;;;;;;;15.20;10.70;;;9.20;99.90;;;;;;5075408;28;20191;-63
2022/09/23 01:52:55;;;;;;;18.53;10.87;;;9.20;99.90;;;;;;5080317;28;20198;-63
2022/09/23 01:55:27;;;;;;;17.37;10.77;;;9.20;99.90;;;;;;5068475;28;20192;-63
2022/09/23 01:58:02;;;;;;;17.20;12.00;;;9.20;99.90;;;;;;5067634;28;20220;-63
2022/09/23 02:00:35;;;;;;;15.43;12.10;;;9.20;99.90;;;;;;5066528;28;20677;-63
2022/09/23 02:03:12;;;;;;;16.13;11.27;;;9.30;99.90;;;;;;5062810;28;20199;-63
2022/09/23 02:05:47;;;;;;;18.93;11.93;;;9.30;99.90;;;;;;5067729;28;20222;-64
2022/09/23 02:08:23;;;;;;;17.10;12.23;;;9.30;99.90;;;;;;5063095;28;20540;-64
2022/09/23 02:10:55;;;;;;;16.90;11.90;;;9.30;99.90;;;;;;5063132;28;20271;-63
2022/09/23 02:13:31;;;;;;;14.93;11.17;;;9.30;99.90;;;;;;5069741;28;20204;-63
2022/09/23 02:16:07;;;;;;;14.83;11.70;;;9.30;99.90;;;;;;5058762;28;20194;-63
2022/09/23 02:18:44;;;;;;;13.00;11.20;;;9.30;99.90;;;;;;5059360;28;20212;-63
2022/09/23 02:21:15;;;;;;;19.00;12.80;;;9.30;99.90;;;;;;5063523;28;20818;-64
2022/09/23 02:23:50;;;;;;;22.90;13.07;;;9.30;99.90;;;;;;5071820;28;20206;-63
2022/09/23 02:26:26;;;;;;;15.03;12.33;;;9.40;99.90;;;;;;5060681;28;20204;-63
2022/09/23 02:29:02;;;;;;;16.80;12.30;;;9.40;99.90;;;;;;5068880;28;20196;-64
2022/09/23 02:31:36;;;;;;;14.73;12.10;;;9.40;99.90;;;;;;5067724;28;20791;-63
2022/09/23 02:34:15;;;;;;;15.00;12.20;;;9.30;99.90;;;;;;5066101;28;20200;-63
2022/09/23 02:36:51;;;;;;;16.50;12.00;;;9.40;99.90;;;;;;5061860;28;20199;-63
2022/09/23 02:39:27;;;;;;;20.77;12.63;;;9.30;99.90;;;;;;5061809;28;20222;-63
2022/09/23 02:42:01;;;;;;;21.70;13.10;;;9.30;99.90;;;;;;5064712;28;20195;-64
2022/09/23 02:44:31;;;;;;;18.40;12.63;;;9.30;99.90;;;;;;5068550;28;20202;-63
2022/09/23 02:47:00;;;;;;;18.47;12.67;;;9.30;99.90;;;;;;5061661;28;20203;-64
2022/09/23 02:49:32;;;;;;;19.17;11.30;;;9.30;99.90;;;;;;5068717;28;20200;-63
2022/09/23 02:52:04;;;;;;;16.80;12.30;;;9.30;99.90;;;;;;5060604;28;20204;-63
2022/09/23 02:54:34;;;;;;;20.43;12.60;;;9.20;99.90;;;;;;5068052;28;20193;-63
2022/09/23 02:57:05;;;;;;;16.83;12.80;;;9.30;99.90;;;;;;5069021;28;20224;-63
2022/09/23 02:59:34;;;;;;;18.83;12.27;;;9.30;99.90;;;;;;5060647;28;20237;-63
2022/09/23 03:02:22;;;;;;;19.77;11.90;;;9.30;99.90;;;;;;5061279;28;20203;-63
2022/09/23 03:04:58;;;;;;;17.97;13.10;;;9.30;99.90;;;;;;5063853;28;20691;-63
2022/09/23 03:07:33;;;;;;;17.10;13.10;;;9.30;99.90;;;;;;5068702;28;20195;-63
2022/09/23 03:10:09;;;;;;;16.90;12.80;;;9.30;99.90;;;;;;5067759;28;20184;-63
2022/09/23 03:12:42;;;;;;;19.13;12.30;;;9.30;99.90;;;;;;5068636;28;20199;-63
2022/09/23 03:15:22;;;;;;;17.73;11.73;;;9.30;99.90;;;;;;5065364;28;20205;-63
2022/09/23 03:17:57;;;;;;;17.50;12.77;;;9.30;99.90;;;;;;5066851;28;20239;-63
2022/09/23 03:20:34;;;;;;;19.50;13.13;;;9.30;99.90;;;;;;5099209;28;20200;-63
2022/09/23 03:23:07;;;;;;;19.97;12.63;;;9.30;99.90;;;;;;5072117;28;20200;-63
2022/09/23 03:25:39;;;;;;;17.87;12.83;;;9.30;99.90;;;;;;5077648;28;20702;-64
2022/09/23 03:28:09;;;;;;;24.87;13.53;;;9.30;99.90;;;;;;5064579;28;20318;-63
2022/09/23 03:30:39;;;;;;;17.77;13.07;;;9.40;99.90;;;;;;5069322;28;20204;-64
2022/09/23 03:33:11;;;;;;;20.33;14.00;;;9.40;99.90;;;;;;5070090;28;20184;-63
2022/09/23 03:38:39;;;;;;;21.00;13.60;;;9.40;99.90;;;;;;5047492;28;20216;-63
2022/09/23 03:41:11;;;;;;;17.20;12.83;;;9.40;99.90;;;;;;5055639;28;20184;-63
2022/09/23 03:43:40;;;;;;;17.87;13.70;;;9.50;99.90;;;;;;5068951;28;20655;-63
2022/09/23 03:46:08;;;;;;;21.40;13.20;;;9.50;99.90;;;;;;5069370;28;20196;-63
2022/09/23 03:48:37;;;;;;;16.63;12.80;;;9.50;99.90;;;;;;5065094;28;20222;-63
2022/09/23 03:51:19;;;;;;;22.63;13.47;;;9.60;99.90;;;;;;5067647;28;22249;-63
2022/09/23 03:53:48;;;;;;;17.53;13.30;;;9.60;99.90;;;;;;5062263;28;20195;-63
2022/09/23 03:56:18;;;;;;;18.80;12.60;;;9.60;99.90;;;;;;5068462;28;20254;-63
2022/09/23 03:58:47;;;;;;;14.00;11.90;;;9.60;99.90;;;;;;5059805;28;20239;-63
2022/09/23 04:01:16;;;;;;;27.33;13.30;;;9.70;99.90;;;;;;5064121;28;20199;-63
2022/09/23 04:03:44;;;;;;;16.77;12.00;;;9.60;99.90;;;;;;5060420;28;20664;-63
2022/09/23 04:06:14;;;;;;;18.17;12.47;;;9.70;99.90;;;;;;5069782;28;20188;-63
2022/09/23 04:08:43;;;;;;;16.70;11.83;;;9.70;99.90;;;;;;5059175;28;20196;-63
2022/09/23 04:11:11;;;;;;;14.47;11.90;;;9.70;99.90;;;;;;5094425;28;20231;-63
2022/09/23 04:13:39;;;;;;;15.13;11.70;;;9.70;99.90;;;;;;5066263;28;20670;-63
2022/09/23 04:16:07;;;;;;;16.17;12.00;;;9.70;99.90;;;;;;5058702;28;20211;-63
2022/09/23 04:18:38;;;;;;;16.43;11.40;;;9.70;99.90;;;;;;5063504;28;20212;-63
2022/09/23 04:21:06;;;;;;;13.03;11.40;;;9.70;99.90;;;;;;5069111;28;20203;-63
2022/09/23 04:23:36;;;;;;;14.27;11.43;;;9.70;99.90;;;;;;5047324;28;20276;-63
2022/09/23 04:26:05;;;;;;;19.93;12.57;;;9.70;99.90;;;;;;5062047;28;20560;-63
2022/09/23 04:28:34;;;;;;;15.00;11.63;;;9.70;99.90;;;;;;5060542;28;20575;-64
2022/09/23 04:31:04;;;;;;;21.50;11.60;;;9.70;99.90;;;;;;5060962;28;20197;-63
2022/09/23 04:33:33;;;;;;;16.80;11.90;;;9.70;99.90;;;;;;5061068;28;20222;-63
2022/09/23 04:36:01;;;;;;;15.43;11.07;;;9.70;99.90;;;;;;5065667;28;20200;-63
2022/09/23 04:38:29;;;;;;;15.20;11.50;;;9.70;99.90;;;;;;5060970;28;20263;-63
2022/09/23 04:41:00;;;;;;;20.07;11.67;;;9.70;99.90;;;;;;5066008;28;20201;-64
2022/09/23 04:43:28;;;;;;;18.63;11.27;;;9.70;99.90;;;;;;5069511;28;20283;-63
2022/09/23 04:46:00;;;;;;;16.53;11.50;;;9.70;99.90;;;;;;5063312;28;20196;-63
2022/09/23 04:48:29;;;;;;;13.27;11.87;;;9.70;99.90;;;;;;5063682;28;20207;-63
2022/09/23 04:51:03;;;;;;;16.63;11.27;;;9.70;99.90;;;;;;5063691;28;20279;-63
2022/09/23 04:53:32;;;;;;;15.47;11.23;;;9.70;99.90;;;;;;5062034;28;20545;-63
2022/09/23 04:56:05;;;;;;;14.10;10.93;;;9.70;99.90;;;;;;5057509;28;20192;-63
2022/09/23 04:58:33;;;;;;;15.03;11.03;;;9.70;99.90;;;;;;5071468;28;20228;-63
2022/09/23 05:01:09;;;;;;;17.27;11.50;;;9.70;99.90;;;;;;5066691;28;20645;-63
2022/09/23 05:03:37;;;;;;;15.43;11.43;;;9.70;99.90;;;;;;5066599;28;20650;-63
2022/09/23 05:06:09;;;;;;;18.63;12.20;;;9.70;99.90;;;;;;5064608;28;20200;-64
2022/09/23 05:08:38;;;;;;;20.47;12.67;;;9.60;99.90;;;;;;5060849;28;20553;-63
2022/09/23 05:11:07;;;;;;;17.90;12.90;;;9.60;99.90;;;;;;5060931;28;20196;-63
2022/09/23 05:13:36;;;;;;;17.77;12.97;;;9.60;99.90;;;;;;5053268;28;20663;-63
2022/09/23 05:16:08;;;;;;;18.97;13.40;;;9.60;99.90;;;;;;5066507;28;20196;-63
2022/09/23 05:18:39;;;;;;;16.20;11.80;;;9.60;99.90;;;;;;5064450;28;20220;-63
2022/09/23 05:21:10;;;;;;;16.30;12.60;;;9.60;99.90;;;;;;5065063;28;20207;-63
2022/09/23 05:23:39;;;;;;;16.53;12.10;;;9.60;99.90;;;;;;5059241;28;20646;-63
2022/09/23 05:26:10;;;;;;;16.73;12.63;;;9.60;99.90;;;;;;5077036;28;20275;-63
2022/09/23 05:28:39;;;;;;;17.87;13.00;;;9.60;99.90;;;;;;5058661;28;20193;-63
2022/09/23 05:31:11;;;;;;;16.00;11.43;;;9.60;99.90;;;;;;5057837;28;20192;-63
2022/09/23 05:33:48;;;;;;;15.17;11.57;;;9.60;99.90;;;;;;5060981;28;20279;-63
2022/09/23 05:36:17;;;;;;;15.40;11.60;;;9.70;99.90;;;;;;5056709;28;20807;-63
2022/09/23 05:38:47;;;;;;;18.63;11.77;;;9.70;99.90;;;;;;5057658;28;20200;-63
2022/09/23 05:41:18;;;;;;;17.47;11.90;;;9.70;99.90;;;;;;5062958;28;20705;-63
2022/09/23 05:43:46;;;;;;;15.40;11.93;;;9.70;99.90;;;;;;5062761;28;20539;-63
2022/09/23 05:46:16;;;;;;;15.90;11.27;;;9.60;99.90;;;;;;5061693;28;20516;-63
2022/09/23 05:48:46;;;;;;;19.97;11.60;;;9.70;99.90;;;;;;5058621;28;20192;-63
2022/09/23 05:51:16;;;;;;;17.10;10.97;;;9.70;99.90;;;;;;5040827;28;20199;-63
2022/09/23 05:53:44;;;;;;;17.43;11.23;;;9.60;99.90;;;;;;5068418;28;20220;-63
2022/09/23 05:56:14;;;;;;;24.83;11.33;;;9.70;99.90;;;;;;5056637;28;20547;-63
2022/09/23 05:58:44;;;;;;;17.07;10.93;;;9.70;99.90;;;;;;5064995;28;20232;-64
2022/09/23 06:01:14;;;;;;;16.97;10.33;;;9.80;99.90;;;;;;5052476;28;20230;-63
2022/09/23 06:03:45;;;;;;;19.00;10.43;;;9.80;99.90;;;;;;5058629;28;22122;-63
2022/09/23 06:06:16;;;;;;;18.47;10.77;;;9.90;99.90;;;;;;5059965;28;20231;-64
2022/09/23 06:08:46;;;;;;;27.57;10.93;;;9.90;99.90;;;;;;5067886;28;20205;-63
2022/09/23 06:11:14;;;;;;;17.57;10.53;;;9.90;99.90;;;;;;5074043;28;20187;-63
2022/09/23 06:13:44;;;;;;;16.60;10.83;;;9.90;99.90;;;;;;5063936;28;20200;-63
2022/09/23 06:16:14;;;;;;;16.50;10.50;;;10.00;99.90;;;;;;5068127;28;20843;-63
2022/09/23 06:18:44;;;;;;;15.40;10.00;;;10.00;99.90;;;;;;5063398;28;20192;-63
2022/09/23 06:21:14;;;;;;;17.00;10.07;;;10.10;99.90;;;;;;5060355;28;20219;-63
2022/09/23 06:23:43;;;;;;;14.20;9.57;;;10.10;99.90;;;;;;5077573;28;20239;-63
2022/09/23 06:26:15;;;;;;;14.90;9.67;;;10.10;99.90;;;;;;5060524;28;20192;-63
2022/09/23 06:28:45;;;;;;;10.97;8.87;;;10.20;99.90;;;;;;5069204;28;20204;-63
2022/09/23 06:31:15;;;;;;;12.00;9.43;;;10.20;99.90;;;;;;5069079;28;20197;-63
2022/09/23 06:33:45;;;;;;;10.20;8.20;;;10.30;99.90;;;;;;5063951;28;20212;-64
2022/09/23 06:36:14;;;;;;;10.00;8.27;;;10.40;99.90;;;;;;5059557;28;20192;-63
2022/09/23 06:39:02;;;;;;;10.93;8.03;;;10.40;99.90;;;;;;5063246;28;20200;-63
2022/09/23 06:41:31;;;;;;;14.03;8.83;;;10.50;99.90;;;;;;5074400;28;20219;-63
2022/09/23 06:44:01;;;;;;;9.13;7.87;;;10.50;99.90;;;;;;5062283;28;20204;-63
2022/09/23 06:46:30;;;;;;;11.27;8.20;;;10.60;99.90;;;;;;5062622;28;20208;-63
2022/09/23 06:48:59;;;;;;;10.77;7.87;;;10.70;99.90;;;;;;5063606;28;20225;-64
2022/09/23 06:51:27;;;;;;;11.97;7.40;;;10.70;99.90;;;;;;5063783;28;20188;-63
2022/09/23 06:53:55;;;;;;;12.90;7.33;;;10.80;99.90;;;;;;5070063;28;20200;-64
2022/09/23 06:56:24;;;;;;;8.97;7.93;;;10.90;99.90;;;;;;5059529;28;20654;-63
2022/09/23 06:58:53;;;;;;;11.23;7.40;;;11.00;99.90;;;;;;5063824;28;20247;-63
2022/09/23 07:01:23;;;;;;;10.20;7.30;;;11.10;99.90;;;;;;5082262;28;20212;-63
2022/09/23 07:03:53;;;;;;;10.63;7.50;;;11.10;99.90;;;;;;5058352;28;20211;-63
2022/09/23 07:06:21;;;;;;;12.93;7.30;;;11.20;99.90;;;;;;5066288;28;20193;-63
2022/09/23 07:08:50;;;;;;;12.27;6.60;;;11.30;99.90;;;;;;5068883;28;20216;-63
2022/09/23 07:11:21;;;;;;;14.97;7.50;;;11.40;99.90;;;;;;5071433;28;20208;-64
2022/09/23 07:13:49;;;;;;;13.83;6.97;;;11.50;99.90;;;;;;5066372;28;20666;-64
2022/09/23 07:16:17;;;;;;;12.00;6.87;;;11.60;99.90;;;;;;5066623;28;20196;-63
2022/09/23 07:18:47;;;;;;;9.83;6.80;;;11.70;99.90;;;;;;5066037;28;20599;-64
2022/09/23 07:21:18;;;;;;;9.97;6.67;;;11.80;99.90;;;;;;5063039;28;20717;-63
2022/09/23 07:23:48;;;;;;;11.57;6.90;;;11.90;99.90;;;;;;5066626;28;20195;-63
2022/09/23 07:26:18;;;;;;;13.13;6.77;;;12.00;99.90;;;;;;5061700;28;20508;-63
2022/09/23 07:28:47;;;;;;;17.70;7.17;;;12.10;99.90;;;;;;5066655;28;20524;-64
2022/09/23 07:31:17;;;;;;;10.07;6.87;;;12.20;99.90;;;;;;5059612;28;20193;-63
2022/09/23 07:34:03;;;;;;;9.03;6.57;;;12.20;99.90;;;;;;5060251;28;20683;-63
2022/09/23 07:36:32;;;;;;;10.13;7.03;;;12.30;99.90;;;;;;5071756;28;20275;-64
2022/09/23 07:39:01;;;;;;;14.73;6.87;;;12.40;99.90;;;;;;5056675;28;20575;-63
2022/09/23 07:41:31;;;;;;;11.20;6.60;;;12.50;99.90;;;;;;5046642;28;20307;-64
2022/09/23 07:44:00;;;;;;;12.37;6.03;;;12.50;99.90;;;;;;5064548;28;20188;-63
2022/09/23 07:46:31;;;;;;;14.70;6.50;;;12.50;99.90;;;;;;5068014;28;20192;-64
2022/09/23 07:49:03;;;;;;;24.00;6.17;;;12.50;99.90;;;;;;5057278;28;20292;-63
2022/09/23 07:51:33;;;;;;;12.80;6.20;;;12.60;99.90;;;;;;5057724;28;20243;-63
2022/09/23 07:54:06;;;;;;;14.47;6.23;;;12.70;99.90;;;;;;5062549;28;20295;-63
2022/09/23 07:56:36;;;;;;;7.23;6.23;;;12.80;99.90;;;;;;5060159;28;20589;-63
2022/09/23 07:59:07;;;;;;;11.07;5.97;;;12.90;99.90;;;;;;5067773;28;20577;-63
2022/09/23 08:01:38;;;;;;;12.00;5.60;;;12.90;99.90;;;;;;5053561;28;20207;-63
2022/09/23 08:04:11;;;;;;;11.83;5.97;;;13.00;99.90;;;;;;5058503;28;20201;-63
2022/09/23 08:06:41;;;;;;;15.37;5.97;;;13.10;99.90;;;;;;5053812;28;20196;-63
2022/09/23 08:09:11;;;;;;;7.33;5.07;;;13.10;99.90;;;;;;5098420;28;20196;-63
2022/09/23 08:11:40;;;;;;;13.13;5.27;;;13.30;99.90;;;;;;5065205;28;20729;-63
2022/09/23 08:14:09;;;;;;;13.67;5.50;;;13.40;99.90;;;;;;5068462;28;20192;-63
2022/09/23 08:16:38;;;;;;;8.57;5.07;;;13.50;99.90;;;;;;5062870;28;20219;-63
2022/09/23 08:19:08;;;;;;;10.13;5.80;;;13.60;99.90;;;;;;5061249;28;20192;-63
2022/09/23 08:21:38;;;;;;;6.70;5.40;;;13.70;99.90;;;;;;5060786;28;20220;-63
2022/09/23 08:24:07;;;;;;;11.10;5.63;;;13.90;99.90;;;;;;5067013;28;20658;-63
2022/09/23 08:26:36;;;;;;;8.50;5.53;;;14.00;99.90;;;;;;5060686;28;20189;-63
2022/09/23 08:29:05;;;;;;;8.77;5.03;;;14.00;99.90;;;;;;5068159;28;20926;-63
2022/09/23 08:31:34;;;;;;;11.97;6.00;;;14.10;99.90;;;;;;5047610;28;20199;-63
2022/09/23 08:34:02;;;;;;;12.10;6.13;;;14.20;99.90;;;;;;5052222;28;20196;-63
2022/09/23 08:36:32;;;;;;;11.77;5.30;;;14.40;99.90;;;;;;5061628;28;20226;-64
2022/09/23 08:39:00;;;;;;;7.63;5.60;;;14.50;99.90;;;;;;5071655;28;20207;-63
2022/09/23 08:41:38;;;;;;;7.07;5.23;;;14.70;99.90;;;;;;5057033;28;20229;-64
2022/09/23 08:44:14;;;;;;;13.20;5.83;;;14.80;99.90;;;;;;5054213;28;20712;-63
2022/09/23 08:46:49;;;;;;;9.13;5.10;;;14.90;99.90;;;;;;5064030;28;20531;-63
2022/09/23 08:49:24;;;;;;;11.33;5.33;;;15.00;99.90;;;;;;5066945;28;20619;-63
2022/09/23 08:51:56;;;;;;;17.53;5.90;;;15.00;99.90;;;;;;5060295;28;20193;-63
2022/09/23 08:54:28;;;;;;;8.63;4.80;;;15.10;99.90;;;;;;5074139;28;20203;-63
2022/09/23 08:56:59;;;;;;;9.60;5.07;;;15.10;99.90;;;;;;5069773;28;20216;-63
2022/09/23 08:59:35;;;;;;;7.43;5.20;;;15.30;99.90;;;;;;5051505;28;20244;-63
2022/09/23 09:02:11;;;;;;;12.20;5.13;;;15.30;99.90;;;;;;5062515;28;20209;-63
2022/09/23 09:04:43;;;;;;;14.57;5.73;;;15.30;99.90;;;;;;5060811;28;20199;-63
2022/09/23 09:07:18;;;;;;;14.50;5.53;;;15.30;99.90;;;;;;5063104;28;20317;-63
2022/09/23 09:10:15;;;;;;;10.50;5.37;;;15.50;99.90;;;;;;5063178;28;20199;-63
2022/09/23 09:12:45;;;;;;;13.67;5.40;;;15.60;99.90;;;;;;5063279;28;20194;-63
2022/09/23 09:15:16;;;;;;;8.27;5.80;;;15.60;99.90;;;;;;5068157;28;20193;-63
2022/09/23 09:17:53;;;;;;;11.90;5.30;;;15.50;99.90;;;;;;5065505;28;20199;-63
2022/09/23 09:20:24;;;;;;;9.33;4.93;;;15.60;99.90;;;;;;5058791;28;20283;-63
2022/09/23 09:22:56;;;;;;;5.87;5.07;;;15.80;99.90;;;;;;5061360;28;20273;-63
2022/09/23 09:25:37;;;;;;;9.87;5.50;;;15.90;99.90;;;;;;5072707;28;20684;-63
2022/09/23 09:28:17;;;;;;;12.73;5.77;;;15.90;99.90;;;;;;5062114;28;20197;-63
2022/09/23 09:30:52;;;;;;;8.97;5.77;;;16.00;99.90;;;;;;5057263;28;20580;-63
2022/09/23 09:33:29;;;;;;;13.37;5.40;;;16.10;99.90;;;;;;5064545;28;20251;-63
2022/09/23 09:36:14;;;;;;;11.43;5.30;;;16.20;99.90;;;;;;5062180;28;20617;-63
2022/09/23 09:38:47;;;;;;;12.53;5.73;;;16.20;99.90;;;;;;5064064;28;20295;-63
2022/09/23 09:41:16;;;;;;;12.03;5.60;;;16.30;99.90;;;;;;5067922;28;20220;-63
2022/09/23 09:43:51;;;;;;;6.90;5.40;;;16.40;99.90;;;;;;5062242;28;20191;-63
2022/09/23 09:46:32;;;;;;;12.40;5.50;;;16.30;99.90;;;;;;5066639;28;20632;-63
2022/09/23 09:49:07;;;;;;;13.23;5.20;;;16.50;99.90;;;;;;5065488;28;20285;-63
2022/09/23 09:51:40;;;;;;;10.93;5.30;;;16.60;99.90;;;;;;5063996;28;20754;-63
2022/09/23 09:54:22;;;;;;;14.83;5.83;;;16.70;99.90;;;;;;5059598;28;20199;-63
2022/09/23 09:56:51;;;;;;;10.93;6.27;;;16.80;99.90;;;;;;5067056;28;20652;-63
2022/09/23 09:59:27;;;;;;;10.67;5.30;;;16.90;99.90;;;;;;5060873;28;20243;-63
2022/09/23 10:02:20;;;;;;;10.43;5.63;;;17.10;99.90;;;;;;5065408;28;20770;-63
2022/09/23 10:04:56;;;;;;;13.40;5.30;;;17.30;99.90;;;;;;5092576;28;20196;-63
2022/09/23 10:07:27;;;;;;;8.37;5.03;;;17.60;99.90;;;;;;5062123;28;20183;-63
2022/09/23 10:09:57;;;;;;;13.10;5.30;;;17.80;99.90;;;;;;5091627;28;20206;-63
2022/09/23 10:12:45;;;;;;;11.53;5.20;;;17.90;99.90;;;;;;5057288;28;20191;-63
2022/09/23 10:15:29;;;;;;;11.73;4.60;;;17.90;99.90;;;;;;5064547;28;20218;-63
2022/09/23 10:18:01;;;;;;;7.93;4.93;;;17.90;99.90;;;;;;5070556;28;20188;-64
2022/09/23 10:20:36;;;;;;;12.03;4.87;;;18.10;99.90;;;;;;5059568;28;20238;-64
2022/09/23 10:23:13;;;;;;;10.83;4.77;;;18.30;99.90;;;;;;5076640;28;20350;-64
2022/09/23 10:25:43;;;;;;;7.13;4.67;;;18.40;99.90;;;;;;5067586;28;20219;-64
2022/09/23 10:28:31;;;;;;;8.53;4.70;;;18.40;99.90;;;;;;5063311;28;20756;-64
2022/09/23 10:31:07;;;;;;;7.00;4.73;;;18.40;99.90;;;;;;5067831;28;20200;-64
2022/09/23 10:33:41;;;;;;;8.03;4.90;;;18.50;99.90;;;;;;5065980;28;20196;-63
2022/09/23 10:36:10;;;;;;;8.87;4.57;;;18.70;99.90;;;;;;5067964;28;20207;-64
2022/09/23 10:38:39;;;;;;;8.67;4.70;;;18.90;99.90;;;;;;5063742;28;20200;-64
2022/09/23 10:47:14;;;;;;;7.27;4.37;;;19.20;99.90;;;;;;5060083;28;20199;-64
2022/09/23 10:50:11;;;;;;;7.60;4.97;;;19.10;99.90;;;;;;5096984;28;20188;-64
2022/09/23 10:52:49;;;;;;;5.93;4.63;;;18.90;99.90;;;;;;5059572;28;20196;-65
2022/09/23 10:55:39;;;;;;;6.17;5.00;;;19.00;99.90;;;;;;5072280;28;20204;-64
2022/09/23 10:58:41;;;;;;;5.90;5.00;;;19.10;99.90;;;;;;5057406;28;20603;-64
2022/09/23 11:01:22;;;;;;;5.07;4.60;;;19.30;99.90;;;;;;5061605;28;20200;-64
2022/09/23 11:04:10;;;;;;;7.73;4.57;;;19.30;99.90;;;;;;5059980;28;20208;-64
2022/09/23 11:06:53;;;;;;;5.50;4.57;;;19.40;99.90;;;;;;5063831;28;20664;-64
2022/09/23 11:09:32;;;;;;;5.40;4.93;;;19.40;99.90;;;;;;5056873;28;20210;-64
2022/09/23 11:12:15;;;;;;;7.50;5.00;;;19.30;99.90;;;;;;5060156;28;20211;-64
2022/09/23 11:15:17;;;;;;;5.00;4.50;;;19.30;99.90;;;;;;5063821;28;20195;-64
2022/09/23 11:18:09;;;;;;;5.57;5.07;;;19.20;99.90;;;;;;5055034;28;20212;-63
2022/09/23 11:20:45;;;;;;;5.23;4.73;;;19.20;99.90;;;;;;5043777;28;20695;-63
2022/09/23 11:23:32;;;;;;;6.47;4.47;;;19.10;99.90;;;;;;5069626;28;20934;-63
2022/09/23 11:26:10;;;;;;;6.10;5.17;;;19.20;99.90;;;;;;5063543;28;20197;-63
2022/09/23 11:28:59;;;;;;;8.30;5.00;;;19.10;99.90;;;;;;5060794;28;20197;-64
2022/09/23 11:31:37;;;;;;;5.47;4.97;;;19.10;99.90;;;;;;5065029;28;20251;-64
2022/09/23 11:34:26;;;;;;;5.50;5.00;;;19.10;99.90;;;;;;5060751;28;20195;-63
2022/09/23 11:36:59;;;;;;;10.37;4.77;;;19.30;99.90;;;;;;5068203;28;20199;-63
2022/09/23 11:39:32;;;;;;;5.93;4.70;;;19.40;99.90;;;;;;5069034;28;20275;-63
2022/09/23 11:42:05;;;;;;;6.37;4.63;;;19.40;99.90;;;;;;5059123;28;20200;-64
2022/09/23 11:44:38;;;;;;;7.33;4.53;;;19.40;99.90;;;;;;5061611;28;20283;-63
2022/09/23 11:47:11;;;;;;;6.17;4.97;;;19.40;99.90;;;;;;5066171;28;20602;-64
2022/09/23 11:49:45;;;;;;;6.27;4.73;;;19.40;99.90;;;;;;5066784;28;20207;-63
2022/09/23 11:52:18;;;;;;;7.23;4.60;;;19.40;99.90;;;;;;5067107;28;20194;-63
2022/09/23 11:54:51;;;;;;;8.63;5.37;;;19.40;99.90;;;;;;5065591;28;20206;-63
2022/09/23 11:57:27;;;;;;;9.80;4.67;;;19.40;99.90;;;;;;5065702;28;20227;-63
2022/09/23 12:00:05;;;;;;;7.60;5.67;;;19.30;99.90;;;;;;5058114;28;20235;-64
2022/09/23 12:02:48;;;;;;;6.97;4.90;;;19.30;99.90;;;;;;5042602;28;20236;-63
2022/09/23 12:05:35;;;;;;;7.90;5.33;;;19.20;99.90;;;;;;5090514;28;20285;-64
2022/09/23 12:08:10;;;;;;;5.63;5.10;;;19.30;99.90;;;;;;5064581;28;20578;-64
2022/09/23 12:10:46;;;;;;;7.47;5.17;;;19.40;99.90;;;;;;5060936;28;20187;-64
2022/09/23 12:13:20;;;;;;;6.20;4.63;;;19.30;99.90;;;;;;5066716;28;20196;-64
2022/09/23 12:16:03;;;;;;;6.83;5.20;;;19.30;99.90;;;;;;5065036;28;20202;-64
2022/09/23 12:18:46;;;;;;;6.23;5.10;;;19.30;99.90;;;;;;5068168;28;20279;-64
2022/09/23 12:21:46;;;;;;;5.97;5.00;;;19.40;99.90;;;;;;5069355;28;20196;-64
2022/09/23 12:24:45;;;;;;;12.97;5.60;;;19.30;99.90;;;;;;5061190;28;20295;-64
2022/09/23 12:27:31;;;;;;;7.27;5.67;;;19.30;99.90;;;;;;5061586;28;20197;-63
2022/09/23 12:30:02;;;;;;;10.30;5.97;;;19.20;99.90;;;;;;5064339;28;20215;-63
2022/09/23 12:32:32;;;;;;;8.10;5.40;;;19.10;99.90;;;;;;5066873;28;20652;-63
2022/09/23 12:35:02;;;;;;;5.73;5.20;;;19.20;99.90;;;;;;5062197;28;20203;-63
2022/09/23 12:37:37;;;;;;;11.57;5.77;;;19.10;99.90;;;;;;5065466;28;20625;-63
2022/09/23 12:40:09;;;;;;;10.23;5.27;;;19.10;99.90;;;;;;5057386;28;20193;-63
2022/09/23 12:42:43;;;;;;;7.97;5.30;;;19.20;99.90;;;;;;5061431;28;20245;-63
2022/09/23 12:45:34;;;;;;;9.97;5.00;;;19.20;99.90;;;;;;5060448;28;20200;-63
2022/09/23 12:48:04;;;;;;;6.20;5.30;;;19.30;99.90;;;;;;5066375;28;20206;-63
2022/09/23 12:51:14;;;;;;;5.93;5.33;;;19.40;99.90;;;;;;5067523;28;20196;-64
2022/09/23 12:53:59;;;;;;;8.63;5.87;;;19.40;99.90;;;;;;5060555;28;20660;-63
2022/09/23 12:56:57;;;;;;;9.33;5.77;;;19.50;99.90;;;;;;5063688;28;20187;-63
2022/09/23 12:59:27;;;;;;;12.00;6.00;;;19.50;99.90;;;;;;5062768;28;20231;-63
2022/09/23 13:01:57;;;;;;;8.47;5.90;;;19.50;99.90;;;;;;5059952;28;20192;-63
2022/09/23 13:07:28;;;;;;;7.27;6.10;;;19.30;99.90;;;;;;5068012;28;20214;-63
2022/09/23 13:10:08;;;;;;;12.03;6.10;;;19.30;99.90;;;;;;5067617;28;20767;-63
2022/09/23 13:12:41;;;;;;;10.83;5.80;;;19.30;99.90;;;;;;5060343;28;20270;-63
2022/09/23 13:15:20;;;;;;;7.87;5.90;;;19.30;99.90;;;;;;5063782;28;20278;-63
2022/09/23 13:17:51;;;;;;;5.87;5.27;;;19.30;99.90;;;;;;5065429;28;20206;-63
2022/09/23 13:20:39;;;;;;;6.90;5.47;;;19.30;99.90;;;;;;5061907;28;21993;-63
2022/09/23 13:23:27;;;;;;;6.93;5.00;;;19.40;99.90;;;;;;5066008;28;20218;-63
2022/09/23 13:25:57;;;;;;;6.37;5.27;;;19.40;99.90;;;;;;5063502;28;20543;-63
2022/09/23 13:28:33;;;;;;;11.37;5.83;;;19.40;99.90;;;;;;5061042;28;20192;-63